Time;durP1;ratioP1;P1;durP2;ratioP2;P2;SDS_P1;SDS_P2;PMS_P1;PMS_P2;Temp;Humidity;BMP_temperature;BMP_pressure;BME280_temperature;BME280_humidity;BME280_pressure;Samples;Min_cycle;Max_cycle;Signal;HPM_P1;HPM_P2
2022/01/22 00:00:55;;;;;;;10.50;5.90;;;7.30;99.90;;;;;;5009919;28;20219;-26
2022/01/22 00:03:23;;;;;;;14.13;6.57;;;7.40;99.90;;;;;;5009785;28;20260;-25
2022/01/22 00:05:55;;;;;;;14.50;6.47;;;7.30;99.90;;;;;;4998080;28;20805;-26
2022/01/22 00:08:31;;;;;;;13.20;6.60;;;7.40;99.90;;;;;;5039205;28;20711;-26
2022/01/22 00:11:06;;;;;;;15.53;7.07;;;7.40;99.90;;;;;;5009803;28;20213;-25
2022/01/22 00:16:19;;;;;;;10.87;6.30;;;7.40;99.90;;;;;;5009606;28;20252;-26
2022/01/22 00:18:51;;;;;;;10.40;6.23;;;7.30;99.90;;;;;;5009361;28;20229;-26
2022/01/22 00:21:18;;;;;;;11.07;6.07;;;7.30;99.90;;;;;;5008242;28;20210;-26
2022/01/22 00:23:55;;;;;;;11.63;6.20;;;7.30;99.90;;;;;;5005040;28;20577;-26
2022/01/22 00:26:23;;;;;;;10.10;6.30;;;7.30;99.90;;;;;;4996639;28;20228;-26
2022/01/22 00:28:50;;;;;;;11.03;6.33;;;7.30;99.90;;;;;;5009269;28;20206;-25
2022/01/22 00:31:17;;;;;;;12.57;6.37;;;7.30;99.90;;;;;;5008897;28;20190;-25
2022/01/22 00:33:45;;;;;;;11.57;6.27;;;7.30;99.90;;;;;;5024671;28;20233;-25
2022/01/22 00:36:14;;;;;;;11.00;5.77;;;7.40;99.90;;;;;;5008254;28;20684;-25
2022/01/22 00:38:46;;;;;;;13.10;6.30;;;7.40;99.90;;;;;;5009288;28;20320;-26
2022/01/22 00:41:16;;;;;;;9.70;5.80;;;7.40;99.90;;;;;;5009475;28;20224;-25
2022/01/22 00:43:43;;;;;;;10.07;6.17;;;7.40;99.90;;;;;;5009265;28;20216;-25
2022/01/22 00:46:13;;;;;;;10.87;6.10;;;7.40;99.90;;;;;;5040336;28;20702;-25
2022/01/22 00:48:40;;;;;;;11.93;5.63;;;7.40;99.90;;;;;;4998629;28;20753;-25
2022/01/22 00:51:07;;;;;;;9.00;6.00;;;7.40;99.90;;;;;;5007400;28;20981;-25
2022/01/22 00:53:34;;;;;;;13.10;6.30;;;7.40;99.90;;;;;;5008816;28;20212;-26
2022/01/22 00:56:02;;;;;;;11.00;5.70;;;7.30;99.90;;;;;;5009215;28;20217;-25
2022/01/22 00:58:29;;;;;;;13.97;6.33;;;7.30;99.90;;;;;;5023237;28;20295;-26
2022/01/22 01:00:59;;;;;;;11.13;6.30;;;7.30;99.90;;;;;;5008354;28;20335;-26
2022/01/22 01:03:32;;;;;;;9.27;6.93;;;7.30;99.90;;;;;;5040011;28;20228;-25
2022/01/22 01:06:01;;;;;;;14.43;7.17;;;7.30;99.90;;;;;;5008678;28;20236;-26
2022/01/22 01:08:32;;;;;;;9.23;6.03;;;7.30;99.90;;;;;;5008175;28;20233;-26
2022/01/22 01:11:00;;;;;;;11.13;6.63;;;7.30;99.90;;;;;;5008918;28;20212;-25
2022/01/22 01:13:30;;;;;;;13.20;6.20;;;7.40;99.90;;;;;;5005587;28;20212;-26
2022/01/22 01:16:14;;;;;;;11.67;6.17;;;7.30;99.90;;;;;;5008952;28;20212;-25
2022/01/22 01:35:16;;;;;;;10.00;6.67;;;7.30;99.90;;;;;;5007742;28;20694;-25
2022/01/22 01:37:43;;;;;;;12.47;6.83;;;7.40;99.90;;;;;;5008229;28;20240;-26
2022/01/22 01:40:17;;;;;;;12.10;7.33;;;7.40;99.90;;;;;;5008488;28;20226;-26
2022/01/22 01:42:53;;;;;;;9.70;6.73;;;7.40;99.90;;;;;;5006094;28;20205;-26
2022/01/22 01:45:21;;;;;;;10.47;7.70;;;7.40;99.90;;;;;;5007857;28;20308;-25
2022/01/22 01:48:00;;;;;;;11.90;7.83;;;7.40;99.90;;;;;;5007754;28;20209;-25
2022/01/22 01:50:31;;;;;;;13.80;7.63;;;7.40;99.90;;;;;;5007733;28;20295;-26
2022/01/22 01:53:17;;;;;;;14.23;7.87;;;7.40;99.90;;;;;;5007787;28;20197;-26
2022/01/22 01:56:04;;;;;;;11.33;8.00;;;7.40;99.90;;;;;;5008120;28;20218;-25
2022/01/22 01:58:31;;;;;;;10.67;7.27;;;7.40;99.90;;;;;;4998898;28;20210;-25
2022/01/22 02:01:01;;;;;;;13.13;8.13;;;7.40;99.90;;;;;;5038965;28;20730;-26
2022/01/22 02:03:29;;;;;;;15.23;8.67;;;7.40;99.90;;;;;;5007454;28;20248;-26
2022/01/22 02:05:58;;;;;;;12.70;7.80;;;7.40;99.90;;;;;;5006867;28;20314;-26
2022/01/22 02:08:26;;;;;;;10.93;7.70;;;7.40;99.90;;;;;;5008201;28;20212;-26
2022/01/22 02:10:58;;;;;;;14.17;8.70;;;7.40;99.90;;;;;;5007644;28;20304;-25
2022/01/22 02:25:00;;;;;;;14.80;9.37;;;7.40;99.90;;;;;;5022206;28;20712;-26
2022/01/22 02:27:27;;;;;;;15.03;9.67;;;7.50;99.90;;;;;;5007341;28;20684;-26
2022/01/22 02:29:59;;;;;;;13.60;9.83;;;7.50;99.90;;;;;;5006841;28;20197;-25
2022/01/22 02:35:15;;;;;;;12.80;10.50;;;7.50;99.90;;;;;;5006184;28;20237;-26
2022/01/22 02:37:51;;;;;;;16.47;10.50;;;7.50;99.90;;;;;;5007380;28;20254;-25
2022/01/22 02:40:28;;;;;;;14.10;9.80;;;7.50;99.90;;;;;;5007328;28;20624;-26
2022/01/22 02:42:55;;;;;;;13.47;9.60;;;7.50;99.90;;;;;;5006059;28;20205;-26
2022/01/22 02:45:23;;;;;;;13.53;10.33;;;7.50;99.90;;;;;;5007428;28;20222;-26
2022/01/22 02:47:51;;;;;;;14.13;10.43;;;7.50;99.90;;;;;;5006715;28;20297;-26
2022/01/22 02:50:19;;;;;;;17.23;11.10;;;7.50;99.90;;;;;;5021528;28;20332;-25
2022/01/22 02:52:50;;;;;;;23.57;11.90;;;7.50;99.90;;;;;;5005707;28;20244;-25
2022/01/22 02:55:19;;;;;;;14.77;11.57;;;7.50;99.90;;;;;;5007657;28;20267;-25
2022/01/22 02:57:48;;;;;;;17.63;11.63;;;7.50;99.90;;;;;;5006806;28;20201;-25
2022/01/22 03:00:21;;;;;;;16.27;12.13;;;7.50;99.90;;;;;;5007864;28;20209;-26
2022/01/22 03:02:51;;;;;;;14.70;11.37;;;7.50;99.90;;;;;;5006691;28;20218;-26
2022/01/22 03:05:19;;;;;;;15.37;12.07;;;7.50;99.90;;;;;;5006552;28;20244;-25
2022/01/22 03:07:51;;;;;;;16.70;11.77;;;7.50;99.90;;;;;;5007015;28;20260;-26
2022/01/22 03:10:22;;;;;;;16.43;12.07;;;7.60;99.90;;;;;;5007333;28;20222;-25
2022/01/22 03:31:47;;;;;;;17.40;13.43;;;7.60;99.90;;;;;;5010881;28;20216;-24
2022/01/22 03:34:14;;;;;;;18.70;13.40;;;7.60;99.90;;;;;;5010559;28;20288;-24
2022/01/22 03:36:41;;;;;;;21.03;14.30;;;7.60;99.90;;;;;;5009664;28;20214;-24
2022/01/22 03:39:11;;;;;;;17.80;13.13;;;7.60;99.90;;;;;;5011222;28;20263;-24
2022/01/22 03:41:38;;;;;;;15.00;12.53;;;7.60;99.90;;;;;;5010410;28;20197;-24
2022/01/22 03:44:06;;;;;;;21.47;14.77;;;7.60;99.90;;;;;;5009795;28;20210;-24
2022/01/22 03:46:36;;;;;;;19.53;14.03;;;7.60;99.90;;;;;;5010094;28;20622;-24
2022/01/22 03:49:05;;;;;;;21.10;14.93;;;7.60;99.90;;;;;;5010345;28;20651;-24
2022/01/22 03:51:38;;;;;;;18.10;14.40;;;7.60;99.90;;;;;;5009226;28;20779;-24
2022/01/22 03:54:05;;;;;;;18.30;14.63;;;7.60;99.90;;;;;;5008289;28;20248;-24
2022/01/22 03:56:38;;;;;;;18.23;14.20;;;7.60;99.90;;;;;;5009896;28;20202;-24
2022/01/22 03:59:05;;;;;;;20.20;14.57;;;7.60;99.90;;;;;;5008434;28;20642;-24
2022/01/22 04:02:02;;;;;;;21.33;15.23;;;7.60;99.90;;;;;;5009581;28;20205;-24
2022/01/22 04:04:26;;;;;;;19.93;14.83;;;7.70;99.90;;;;;;5009355;28;20236;-24
2022/01/22 04:07:30;;;;;;;20.27;14.83;;;7.60;99.90;;;;;;5008903;28;20217;-24
2022/01/22 04:09:47;;;;;;;22.63;15.07;;;7.70;99.90;;;;;;5008443;28;20217;-24
2022/01/22 04:12:20;;;;;;;20.90;15.20;;;7.70;99.90;;;;;;4999945;28;20570;-24
2022/01/22 04:14:55;;;;;;;21.63;15.50;;;7.70;99.90;;;;;;5009004;28;20198;-24
2022/01/22 04:24:48;;;;;;;20.60;15.10;;;7.70;99.90;;;;;;5009670;28;20189;-24
2022/01/22 04:26:03;;;;;;;23.70;17.23;;;7.70;99.90;;;;;;5003934;28;20747;-24
2022/01/22 04:28:33;;;;;;;21.00;15.70;;;7.70;99.90;;;;;;5009444;28;20200;-24
2022/01/22 04:31:00;;;;;;;25.87;16.37;;;7.70;99.90;;;;;;5009377;28;20654;-24
2022/01/22 04:33:27;;;;;;;24.23;16.63;;;7.70;99.90;;;;;;5008571;28;20194;-23
2022/01/22 04:35:56;;;;;;;23.60;16.67;;;7.70;99.90;;;;;;5008252;28;20205;-24
2022/01/22 04:38:24;;;;;;;23.47;16.60;;;7.70;99.90;;;;;;5009067;28;20217;-24
2022/01/22 04:40:51;;;;;;;22.67;16.23;;;7.70;99.90;;;;;;5009652;28;20209;-24
2022/01/22 04:43:21;;;;;;;25.20;17.13;;;7.70;99.90;;;;;;5008473;28;20311;-24
2022/01/22 04:46:10;;;;;;;22.60;16.50;;;7.70;99.90;;;;;;5009688;28;20226;-24
2022/01/22 04:56:49;;;;;;;25.73;17.77;;;7.70;99.90;;;;;;5008733;28;20305;-24
2022/01/22 04:59:17;;;;;;;23.43;17.20;;;7.70;99.90;;;;;;5009302;28;20205;-24
2022/01/22 05:01:44;;;;;;;24.40;18.40;;;7.70;99.90;;;;;;5009542;28;20201;-24
2022/01/22 05:04:14;;;;;;;24.97;17.63;;;7.80;99.90;;;;;;5008603;28;20692;-24
2022/01/22 05:06:41;;;;;;;24.47;16.93;;;7.80;99.90;;;;;;5008168;28;20209;-24
2022/01/22 05:09:14;;;;;;;26.37;18.10;;;7.80;99.90;;;;;;5008507;28;20214;-24
2022/01/22 05:11:43;;;;;;;24.47;17.23;;;7.80;99.90;;;;;;5007248;28;20208;-24
2022/01/22 05:14:13;;;;;;;25.07;17.70;;;7.80;99.90;;;;;;5008363;28;20216;-24
2022/01/22 05:16:45;;;;;;;24.63;17.67;;;7.80;99.90;;;;;;5008815;28;20201;-24
2022/01/22 05:19:21;;;;;;;25.40;18.07;;;7.80;99.90;;;;;;5008575;28;20207;-24
2022/01/22 05:21:54;;;;;;;29.90;18.83;;;7.80;99.90;;;;;;5007852;28;20208;-24
2022/01/22 05:24:28;;;;;;;26.67;18.23;;;7.80;99.90;;;;;;5022677;28;20316;-24
2022/01/22 05:27:35;;;;;;;28.43;18.70;;;7.80;99.90;;;;;;5007925;28;20344;-24
2022/01/22 05:37:47;;;;;;;27.77;18.80;;;7.80;99.90;;;;;;5008797;28;20275;-26
2022/01/22 05:40:14;;;;;;;26.57;18.97;;;7.80;99.90;;;;;;5008508;28;20665;-25
2022/01/22 05:42:41;;;;;;;26.70;18.40;;;7.80;99.90;;;;;;5008006;28;20227;-25
2022/01/22 05:45:11;;;;;;;28.63;19.37;;;7.80;99.90;;;;;;5007468;28;20672;-25
2022/01/22 05:47:38;;;;;;;25.73;19.03;;;7.90;99.90;;;;;;5007552;28;20275;-26
2022/01/22 05:50:12;;;;;;;30.43;20.17;;;7.90;99.90;;;;;;4987844;28;20202;-25
2022/01/22 05:52:54;;;;;;;27.90;19.37;;;7.90;99.90;;;;;;5003182;28;20216;-26
2022/01/22 06:00:55;;;;;;;25.90;18.93;;;7.90;99.90;;;;;;4998000;28;20707;-25
2022/01/22 06:03:25;;;;;;;30.17;20.00;;;7.90;99.90;;;;;;5007170;28;20284;-25
2022/01/22 06:05:55;;;;;;;27.33;19.20;;;7.90;99.90;;;;;;5001502;28;20236;-26
2022/01/22 06:08:22;;;;;;;26.47;19.70;;;7.90;99.90;;;;;;5001462;28;20213;-26
2022/01/22 06:10:54;;;;;;;31.53;20.10;;;7.90;99.90;;;;;;5004092;28;20233;-26
2022/01/22 06:13:33;;;;;;;29.63;19.40;;;7.90;99.90;;;;;;5002390;28;20201;-24
2022/01/22 06:16:00;;;;;;;24.60;18.83;;;7.90;99.90;;;;;;5004000;28;20730;-24
2022/01/22 06:18:30;;;;;;;28.03;20.10;;;7.90;99.90;;;;;;5003057;28;20660;-24
2022/01/22 06:21:00;;;;;;;26.63;20.40;;;7.90;99.90;;;;;;5001104;28;20220;-24
2022/01/22 06:23:27;;;;;;;30.03;19.90;;;8.00;99.90;;;;;;5007423;28;20548;-24
2022/01/22 06:26:00;;;;;;;28.23;20.97;;;8.00;99.90;;;;;;5007122;28;20232;-25
2022/01/22 06:28:33;;;;;;;31.33;20.53;;;8.00;99.90;;;;;;5015746;28;20217;-25
2022/01/22 06:31:05;;;;;;;29.70;19.80;;;8.00;99.90;;;;;;5007012;28;20296;-25
2022/01/22 06:33:32;;;;;;;27.67;20.77;;;8.00;99.90;;;;;;5007675;28;20202;-25
2022/01/22 06:36:03;;;;;;;34.90;21.67;;;8.00;99.90;;;;;;5004972;28;20229;-25
2022/01/22 06:38:30;;;;;;;32.00;19.93;;;8.00;99.90;;;;;;5005170;28;20581;-25
2022/01/22 06:43:48;;;;;;;30.70;20.47;;;8.00;99.90;;;;;;5003367;28;20316;-25
2022/01/22 06:46:15;;;;;;;29.93;20.60;;;8.00;99.90;;;;;;5009798;28;20216;-25
2022/01/22 06:48:47;;;;;;;27.30;21.13;;;8.10;99.90;;;;;;5006684;28;20216;-25
2022/01/22 06:51:14;;;;;;;29.63;21.13;;;8.10;99.90;;;;;;5033843;28;20233;-25
2022/01/22 06:53:42;;;;;;;31.87;22.43;;;8.10;99.90;;;;;;5016408;28;20709;-25
2022/01/22 06:56:19;;;;;;;28.27;21.23;;;8.10;99.90;;;;;;5019765;28;20198;-25
2022/01/22 06:58:49;;;;;;;32.60;21.50;;;8.10;99.90;;;;;;5008248;28;20209;-25
2022/01/22 07:01:19;;;;;;;31.47;20.73;;;8.10;99.90;;;;;;5005840;28;20221;-25
2022/01/22 07:03:46;;;;;;;30.50;21.50;;;8.10;99.90;;;;;;5000364;28;20213;-25
2022/01/22 07:06:16;;;;;;;32.03;21.33;;;8.10;99.90;;;;;;5011792;28;20604;-25
2022/01/22 07:08:46;;;;;;;28.97;20.63;;;8.10;99.90;;;;;;5021031;28;20255;-26
2022/01/22 07:11:13;;;;;;;31.40;21.30;;;8.10;99.90;;;;;;5011487;28;20241;-26
2022/01/22 07:13:43;;;;;;;28.03;19.97;;;8.10;99.90;;;;;;5013464;28;20190;-27
2022/01/22 07:16:13;;;;;;;32.73;21.47;;;8.10;99.90;;;;;;5012124;28;20213;-26
2022/01/22 07:18:40;;;;;;;33.73;21.37;;;8.10;99.90;;;;;;5011150;28;20234;-26
2022/01/22 07:21:20;;;;;;;28.13;20.00;;;8.10;99.90;;;;;;5009762;28;20205;-26
2022/01/22 07:26:23;;;;;;;29.87;21.57;;;8.20;99.90;;;;;;5005908;28;20213;-27
2022/01/22 07:28:56;;;;;;;32.43;21.57;;;8.10;99.90;;;;;;5010353;28;20209;-27
2022/01/22 07:31:27;;;;;;;29.27;19.43;;;8.20;99.90;;;;;;5008040;28;20206;-26
2022/01/22 07:33:57;;;;;;;29.37;19.97;;;8.20;99.90;;;;;;5005467;28;20554;-27
2022/01/22 07:36:24;;;;;;;28.23;21.87;;;8.20;99.90;;;;;;5009620;28;20197;-27
2022/01/22 07:38:53;;;;;;;27.87;20.70;;;8.20;99.90;;;;;;5009452;28;20217;-25
2022/01/22 07:41:20;;;;;;;29.70;20.37;;;8.20;99.90;;;;;;5010014;28;20205;-25
2022/01/22 07:43:48;;;;;;;34.60;22.57;;;8.20;99.90;;;;;;5009291;28;20205;-25
2022/01/22 07:46:16;;;;;;;28.90;20.40;;;8.20;99.90;;;;;;5008966;28;20719;-25
2022/01/22 07:48:43;;;;;;;29.00;20.17;;;8.20;99.90;;;;;;5010545;28;20201;-22
2022/01/22 07:51:10;;;;;;;28.07;20.20;;;8.20;99.90;;;;;;5009493;28;20261;-22
2022/01/22 07:53:38;;;;;;;30.17;21.30;;;8.20;99.90;;;;;;5008798;28;20214;-22
2022/01/22 07:56:06;;;;;;;30.47;20.43;;;8.20;99.90;;;;;;5006658;28;20214;-22
2022/01/22 07:58:33;;;;;;;29.73;21.07;;;8.20;99.90;;;;;;5010177;28;20201;-24
2022/01/22 08:01:00;;;;;;;31.93;20.63;;;8.20;99.90;;;;;;5008515;28;20208;-24
2022/01/22 08:03:28;;;;;;;31.97;21.50;;;8.20;99.90;;;;;;5008596;28;20221;-24
2022/01/22 08:05:56;;;;;;;30.00;20.60;;;8.20;99.90;;;;;;5008340;28;20205;-24
2022/01/22 08:08:26;;;;;;;29.63;21.47;;;8.20;99.90;;;;;;5010243;28;20672;-24
2022/01/22 08:10:56;;;;;;;31.00;21.37;;;8.20;99.90;;;;;;5009469;28;20217;-24
2022/01/22 08:13:23;;;;;;;30.37;21.60;;;8.20;99.90;;;;;;5007913;28;20224;-24
2022/01/22 08:15:52;;;;;;;32.57;21.47;;;8.30;99.90;;;;;;5009440;28;20295;-24
2022/01/22 08:18:20;;;;;;;30.30;21.00;;;8.20;99.90;;;;;;5009727;28;20221;-24
2022/01/22 08:20:47;;;;;;;28.87;20.37;;;8.30;99.90;;;;;;5009297;28;20293;-24
2022/01/22 08:23:16;;;;;;;31.07;20.60;;;8.30;99.90;;;;;;5007584;28;20199;-26
2022/01/22 08:25:47;;;;;;;29.07;20.80;;;8.30;99.90;;;;;;5009678;28;20663;-26
2022/01/22 08:31:15;;;;;;;28.83;21.17;;;8.30;99.90;;;;;;5017046;28;20205;-26
2022/01/22 08:36:44;;;;;;;28.33;20.63;;;8.30;99.90;;;;;;5006892;28;20728;-26
2022/01/22 08:39:13;;;;;;;33.10;21.27;;;8.30;99.90;;;;;;5008940;28;20681;-26
2022/01/22 08:41:40;;;;;;;31.83;22.10;;;8.40;99.90;;;;;;5008523;28;20400;-24
2022/01/22 08:44:10;;;;;;;30.60;21.30;;;8.40;99.90;;;;;;5008202;28;20241;-24
2022/01/22 08:46:38;;;;;;;32.33;22.10;;;8.40;99.90;;;;;;5008598;28;20229;-24
2022/01/22 08:49:09;;;;;;;28.83;20.93;;;8.40;99.90;;;;;;5009184;28;20558;-24
2022/01/22 08:51:39;;;;;;;29.80;20.60;;;8.40;99.90;;;;;;5007984;28;20264;-25
2022/01/22 08:54:11;;;;;;;28.60;21.20;;;8.40;99.90;;;;;;5007098;28;20213;-24
2022/01/22 08:56:43;;;;;;;29.57;21.53;;;8.40;99.90;;;;;;5007863;28;20316;-24
2022/01/22 08:59:13;;;;;;;28.43;20.73;;;8.40;99.90;;;;;;5008537;28;20260;-24
2022/01/22 09:01:48;;;;;;;26.83;21.50;;;8.40;99.90;;;;;;5023597;28;20605;-24
2022/01/22 09:04:16;;;;;;;30.57;21.60;;;8.40;99.90;;;;;;5007719;28;20906;-24
2022/01/22 09:06:46;;;;;;;28.23;19.50;;;8.50;99.90;;;;;;5005360;28;20249;-24
2022/01/22 09:09:16;;;;;;;31.10;21.07;;;8.50;99.90;;;;;;5008732;28;20236;-24
2022/01/22 09:11:45;;;;;;;28.83;21.33;;;8.50;99.90;;;;;;5008556;28;20528;-24
2022/01/22 09:14:16;;;;;;;29.87;19.70;;;8.50;99.90;;;;;;5008654;28;20304;-24
2022/01/22 09:16:46;;;;;;;30.70;20.27;;;8.50;99.90;;;;;;5008339;28;20308;-24
2022/01/22 09:19:14;;;;;;;30.13;20.20;;;8.50;99.90;;;;;;5008609;28;20248;-24
2022/01/22 09:21:44;;;;;;;27.60;19.33;;;8.50;99.90;;;;;;5007510;28;20228;-24
2022/01/22 09:24:12;;;;;;;27.73;19.37;;;8.60;99.90;;;;;;5006397;28;20299;-24
2022/01/22 09:26:40;;;;;;;27.87;20.20;;;8.60;99.90;;;;;;5022732;28;20644;-24
2022/01/22 09:29:10;;;;;;;29.10;20.17;;;8.60;99.90;;;;;;5008705;28;20209;-24
2022/01/22 09:31:37;;;;;;;28.33;19.97;;;8.60;99.90;;;;;;5008568;28;20206;-27
2022/01/22 09:34:07;;;;;;;29.60;21.30;;;8.60;99.90;;;;;;5007223;28;20588;-27
2022/01/22 09:36:34;;;;;;;31.53;20.20;;;8.60;99.90;;;;;;4988359;28;20198;-26
2022/01/22 09:39:04;;;;;;;30.97;20.90;;;8.60;99.90;;;;;;5007582;28;20214;-26
2022/01/22 09:41:32;;;;;;;31.90;21.87;;;8.70;99.90;;;;;;5007357;28;20202;-27
2022/01/22 09:44:19;;;;;;;26.70;20.17;;;8.70;99.90;;;;;;5027878;28;20205;-26
2022/01/22 09:46:50;;;;;;;30.87;19.47;;;8.70;99.90;;;;;;4997930;28;20400;-26
2022/01/22 09:49:17;;;;;;;28.17;20.60;;;8.70;99.90;;;;;;5005074;28;20197;-22
2022/01/22 09:51:45;;;;;;;29.77;22.40;;;8.70;99.90;;;;;;5004816;28;20261;-22
2022/01/22 09:54:15;;;;;;;31.73;22.40;;;8.80;99.90;;;;;;5004480;28;20723;-22
2022/01/22 09:56:44;;;;;;;31.90;22.17;;;8.80;99.90;;;;;;5001824;28;20221;-22
2022/01/22 09:59:13;;;;;;;33.70;21.67;;;8.80;99.90;;;;;;5006580;28;20218;-22
2022/01/22 10:01:40;;;;;;;35.17;22.93;;;8.80;99.90;;;;;;5004436;28;20651;-22
2022/01/22 10:04:09;;;;;;;32.23;22.37;;;8.80;99.90;;;;;;5009706;28;20207;-22
2022/01/22 10:06:53;;;;;;;34.07;23.30;;;8.80;99.90;;;;;;5008833;28;20226;-22
2022/01/22 10:09:32;;;;;;;32.23;21.33;;;8.80;99.90;;;;;;5012863;28;20572;-22
2022/01/22 10:12:27;;;;;;;32.23;22.33;;;8.80;99.90;;;;;;5011449;28;20197;-23
2022/01/22 10:15:24;;;;;;;32.67;23.37;;;8.90;99.90;;;;;;5009043;28;20719;-22
2022/01/22 10:17:56;;;;;;;33.07;23.93;;;8.90;99.90;;;;;;5009699;28;20302;-22
2022/01/22 10:20:29;;;;;;;30.70;22.23;;;8.90;99.90;;;;;;5002478;28;20231;-22
2022/01/22 10:23:04;;;;;;;31.37;22.70;;;8.90;99.90;;;;;;5007251;28;20300;-22
2022/01/22 10:25:47;;;;;;;31.20;21.53;;;8.90;99.90;;;;;;5006536;28;20676;-22
2022/01/22 10:28:23;;;;;;;30.10;21.53;;;8.90;99.90;;;;;;5005028;28;20227;-22
2022/01/22 10:31:06;;;;;;;29.87;21.90;;;8.90;99.90;;;;;;5037962;28;20210;-22
2022/01/22 10:33:35;;;;;;;28.10;21.00;;;8.90;99.90;;;;;;5006924;28;20241;-22
2022/01/22 10:36:20;;;;;;;31.57;22.63;;;9.00;99.90;;;;;;5006835;28;20201;-22
2022/01/22 10:38:49;;;;;;;28.97;21.83;;;9.00;99.90;;;;;;5007281;28;20560;-22
2022/01/22 10:41:35;;;;;;;30.87;22.37;;;9.00;99.90;;;;;;5007173;28;20210;-22
2022/01/22 10:44:09;;;;;;;29.60;21.97;;;9.00;99.90;;;;;;4991907;28;20692;-24
2022/01/22 10:47:03;;;;;;;31.07;21.87;;;9.10;99.90;;;;;;5006404;28;20295;-25
2022/01/22 10:49:36;;;;;;;28.40;20.60;;;9.10;99.90;;;;;;5013842;28;20757;-25
2022/01/22 10:52:11;;;;;;;33.93;21.93;;;9.10;99.90;;;;;;5006380;28;20233;-25
2022/01/22 10:54:39;;;;;;;30.83;22.07;;;9.10;99.90;;;;;;5005788;28;20694;-25
2022/01/22 10:57:12;;;;;;;32.73;21.80;;;9.10;99.90;;;;;;5005061;28;20210;-25
2022/01/22 10:59:53;;;;;;;31.43;22.27;;;9.10;99.90;;;;;;5007173;28;20224;-22
2022/01/22 11:02:37;;;;;;;29.53;22.23;;;9.10;99.90;;;;;;5021286;28;20205;-22
2022/01/22 11:05:30;;;;;;;30.50;22.90;;;9.10;99.90;;;;;;5005261;28;20210;-22
2022/01/22 11:08:13;;;;;;;29.33;21.53;;;9.10;99.90;;;;;;5004026;28;20253;-24
2022/01/22 11:10:44;;;;;;;28.67;21.63;;;9.10;99.90;;;;;;5004538;28;20320;-24
2022/01/22 11:13:12;;;;;;;28.17;21.27;;;9.10;99.90;;;;;;5006446;28;20201;-24
2022/01/22 11:15:47;;;;;;;29.27;21.77;;;9.10;99.90;;;;;;5007467;28;20717;-24
2022/01/22 11:18:18;;;;;;;29.63;21.80;;;9.20;99.90;;;;;;5006296;28;20556;-24
2022/01/22 11:20:52;;;;;;;31.07;21.57;;;9.20;99.90;;;;;;4992512;28;20213;-24
2022/01/22 11:23:24;;;;;;;29.50;21.23;;;9.20;99.90;;;;;;5012743;28;20344;-24
2022/01/22 11:25:55;;;;;;;28.90;22.70;;;9.20;99.90;;;;;;4994133;28;20228;-24
2022/01/22 11:28:26;;;;;;;30.27;21.43;;;9.20;99.90;;;;;;5005801;28;20213;-24
2022/01/22 11:30:54;;;;;;;35.47;23.37;;;9.20;99.90;;;;;;5005959;28;20529;-22
2022/01/22 11:33:24;;;;;;;28.50;22.37;;;9.20;99.90;;;;;;5001687;28;20205;-22
2022/01/22 11:35:52;;;;;;;30.67;22.33;;;9.20;99.90;;;;;;5000260;28;20861;-22
2022/01/22 11:38:33;;;;;;;30.23;22.53;;;9.20;99.90;;;;;;5003199;28;20210;-22
2022/01/22 11:41:09;;;;;;;28.60;22.43;;;9.20;99.90;;;;;;5004659;28;20190;-22
2022/01/22 11:44:13;;;;;;;31.73;22.70;;;9.20;99.90;;;;;;5020805;28;20221;-22
2022/01/22 11:46:45;;;;;;;32.90;23.43;;;9.20;99.90;;;;;;5005387;28;20215;-25
2022/01/22 11:49:21;;;;;;;35.43;23.07;;;9.10;99.90;;;;;;5006741;28;20229;-25
2022/01/22 11:52:13;;;;;;;30.23;22.57;;;9.10;99.90;;;;;;5004799;28;20300;-24
2022/01/22 11:55:01;;;;;;;29.83;22.17;;;9.10;99.90;;;;;;5009688;28;20884;-25
2022/01/22 11:57:31;;;;;;;29.50;21.90;;;9.10;99.90;;;;;;5021804;28;20205;-22
2022/01/22 12:00:17;;;;;;;34.03;23.83;;;9.10;99.90;;;;;;5007802;28;20214;-24
2022/01/22 12:03:07;;;;;;;31.07;21.97;;;9.20;99.90;;;;;;5024639;28;20204;-24
2022/01/22 12:05:54;;;;;;;33.33;22.80;;;9.20;99.90;;;;;;4995323;28;20193;-24
2022/01/22 12:08:23;;;;;;;32.27;23.40;;;9.20;99.90;;;;;;4994203;28;20787;-24
2022/01/22 12:16:41;;;;;;;29.10;22.50;;;9.20;99.90;;;;;;5009662;28;20244;-24
2022/01/22 12:19:46;;;;;;;33.07;23.00;;;9.20;99.90;;;;;;4994885;28;20210;-24
2022/01/22 12:22:54;;;;;;;33.00;22.00;;;9.20;99.90;;;;;;4996525;28;20202;-24
2022/01/22 12:25:24;;;;;;;28.30;20.80;;;9.20;99.90;;;;;;5018495;28;20582;-24
2022/01/22 12:27:52;;;;;;;32.10;22.73;;;9.20;99.90;;;;;;5019036;28;20605;-24
2022/01/22 12:30:39;;;;;;;31.27;22.23;;;9.10;99.90;;;;;;5010515;28;20594;-24
2022/01/22 12:33:10;;;;;;;30.07;21.40;;;9.10;99.90;;;;;;5002429;28;20208;-24
2022/01/22 12:35:47;;;;;;;28.93;19.90;;;9.10;99.90;;;;;;5002606;28;20221;-24
2022/01/22 12:44:14;;;;;;;29.97;20.20;;;9.10;99.90;;;;;;5002393;28;20283;-24
2022/01/22 12:46:54;;;;;;;30.30;21.50;;;9.10;99.90;;;;;;5006382;28;20213;-24
2022/01/22 12:49:25;;;;;;;31.83;23.10;;;9.00;99.90;;;;;;5003522;28;20225;-24
2022/01/22 12:52:04;;;;;;;28.33;21.90;;;9.00;99.90;;;;;;5004169;28;20329;-24
2022/01/22 12:54:39;;;;;;;28.57;21.63;;;9.00;99.90;;;;;;5004746;28;20616;-24
2022/01/22 12:57:22;;;;;;;27.87;21.40;;;9.10;99.90;;;;;;5001001;28;20213;-24
2022/01/22 13:02:42;;;;;;;31.30;21.50;;;9.00;99.90;;;;;;5001662;28;20225;-24
2022/01/22 13:05:15;;;;;;;27.07;21.23;;;9.00;99.90;;;;;;5001686;28;20309;-24
2022/01/22 13:07:53;;;;;;;27.60;21.07;;;9.00;99.90;;;;;;5001523;28;20218;-24
2022/01/22 13:10:26;;;;;;;28.20;21.87;;;9.00;99.90;;;;;;5017557;28;20208;-24
2022/01/22 13:12:55;;;;;;;33.13;21.20;;;9.00;99.90;;;;;;5001767;28;20646;-24
2022/01/22 13:15:27;;;;;;;29.50;22.83;;;9.00;99.90;;;;;;5001182;28;20202;-24
2022/01/22 13:17:57;;;;;;;33.83;23.43;;;9.00;99.90;;;;;;5007817;28;20221;-24
2022/01/22 13:20:32;;;;;;;31.87;23.10;;;9.00;99.90;;;;;;5001491;28;20297;-24
2022/01/22 13:23:11;;;;;;;30.40;22.60;;;9.00;99.90;;;;;;5019984;28;20292;-24
2022/01/22 13:25:39;;;;;;;28.80;22.23;;;9.00;99.90;;;;;;5001174;28;20201;-24
2022/01/22 13:28:10;;;;;;;29.20;22.87;;;9.00;99.90;;;;;;4999991;28;20236;-24
2022/01/22 13:30:46;;;;;;;32.83;23.53;;;9.00;99.90;;;;;;5001393;28;20256;-24
2022/01/22 13:33:21;;;;;;;31.60;23.50;;;9.00;99.90;;;;;;4999848;28;20343;-24
2022/01/22 13:49:51;;;;;;;29.50;22.73;;;9.00;99.90;;;;;;5000519;28;20309;-24
2022/01/22 13:52:21;;;;;;;29.13;21.70;;;9.00;99.90;;;;;;5018998;28;20327;-24
2022/01/22 13:54:51;;;;;;;29.67;22.50;;;9.00;99.90;;;;;;5000920;28;20298;-24
2022/01/22 13:57:24;;;;;;;28.47;22.23;;;9.00;99.90;;;;;;5015524;28;20229;-24
2022/01/22 13:59:56;;;;;;;30.70;22.47;;;9.00;99.90;;;;;;5001584;28;20205;-24
2022/01/22 14:05:11;;;;;;;28.20;22.20;;;9.00;99.90;;;;;;5000520;28;20224;-24
2022/01/22 14:07:48;;;;;;;30.93;22.47;;;9.00;99.90;;;;;;5004293;28;20209;-24
2022/01/22 14:10:20;;;;;;;33.67;24.20;;;9.00;99.90;;;;;;5002837;28;20197;-24
2022/01/22 14:13:07;;;;;;;33.60;23.37;;;9.00;99.90;;;;;;5001739;28;20198;-24
2022/01/22 14:15:38;;;;;;;31.77;23.50;;;9.00;99.90;;;;;;5000503;28;20210;-24
2022/01/22 14:18:22;;;;;;;28.47;22.07;;;9.00;99.90;;;;;;4999951;28;20440;-24
2022/01/22 14:20:55;;;;;;;34.10;23.30;;;9.00;99.90;;;;;;5029776;28;20201;-25
2022/01/22 14:23:22;;;;;;;29.90;22.20;;;9.00;99.90;;;;;;4999533;28;20221;-24
2022/01/22 14:26:08;;;;;;;31.73;23.40;;;9.00;99.90;;;;;;5001680;28;20236;-24
2022/01/22 14:28:45;;;;;;;27.30;21.70;;;9.00;99.90;;;;;;5000234;28;21079;-24
2022/01/22 14:31:31;;;;;;;31.87;22.93;;;9.00;99.90;;;;;;4998968;28;20445;-24
2022/01/22 14:34:04;;;;;;;31.83;22.87;;;9.00;99.90;;;;;;4999646;28;20205;-24
2022/01/22 14:36:47;;;;;;;29.50;21.47;;;9.00;99.90;;;;;;4999967;28;20228;-24
2022/01/22 14:44:56;;;;;;;28.60;22.83;;;9.00;99.90;;;;;;5000230;28;20213;-24
2022/01/22 14:47:28;;;;;;;29.50;22.60;;;8.90;99.90;;;;;;4997184;28;20677;-24
2022/01/22 14:50:12;;;;;;;30.80;22.60;;;8.90;99.90;;;;;;5003901;28;20670;-25
2022/01/22 14:52:40;;;;;;;28.53;22.37;;;8.90;99.90;;;;;;5005309;28;20201;-24
2022/01/22 14:55:08;;;;;;;29.37;23.27;;;8.90;99.90;;;;;;5000727;28;20213;-24
2022/01/22 14:57:40;;;;;;;29.47;24.03;;;8.90;99.90;;;;;;5021325;28;20279;-24
2022/01/22 15:00:14;;;;;;;27.33;22.03;;;8.90;99.90;;;;;;5006824;28;20692;-24
2022/01/22 15:02:45;;;;;;;30.20;22.97;;;8.90;99.90;;;;;;5017491;28;20243;-24
2022/01/22 15:05:16;;;;;;;32.40;24.23;;;8.90;99.90;;;;;;5003077;28;20965;-24
2022/01/22 15:07:45;;;;;;;30.60;25.07;;;8.90;99.90;;;;;;5003593;28;20247;-24
2022/01/22 15:10:18;;;;;;;30.80;23.50;;;8.90;99.90;;;;;;5006756;28;20621;-25
2022/01/22 15:12:45;;;;;;;30.70;24.00;;;8.90;99.90;;;;;;5006460;28;20211;-24